Evansville, Vermont
Current Conditions -  °F | °C
As of 10:35 PM on Saturday 22 Nov 2014 (Local Time) from KEFK Reporting Station
Unknown Precip Unknown Precip  
Wind Chill: 28°   Ceiling: 2800
Heat Index: 32°   Visibility: 7mi
Dew Point: 29°   Wind: 5mph
Humidity: 88%   Direction: 180°S
Pressure: 29.91"   Gusts: NA
Location:  44.7955°N, 72.0983°W
Report Text: KEFK 230335Z AUTO 18004KT 7SM UP BKN028 OVC037 00/M02 A2991 RMK AO2 T00011017
Loading
Personal Weather Stations






























Interactive Weather Map New forecast layout! Learn more

10-Day Weather Forecast

Advertisements
Track Severe Weather on mobile